sensor_id;sensor_type;location;lat;lon;timestamp;pressure;altitude;pressure_sealevel;temperature;humidity
80102;BME280;69407;44.966;19.622;2023-07-08T00:01:07;101265.53;;;19.80;75.53
80102;BME280;69407;44.966;19.622;2023-07-08T00:03:34;101274.00;;;19.74;76.01
80102;BME280;69407;44.966;19.622;2023-07-08T00:05:59;101268.81;;;19.59;76.25
80102;BME280;69407;44.966;19.622;2023-07-08T00:08:25;101266.78;;;19.63;75.88
80102;BME280;69407;44.966;19.622;2023-07-08T00:10:51;101275.22;;;19.70;75.72
80102;BME280;69407;44.966;19.622;2023-07-08T00:13:16;101268.88;;;19.71;75.27
80102;BME280;69407;44.966;19.622;2023-07-08T00:15:44;101278.44;;;19.62;75.65
80102;BME280;69407;44.966;19.622;2023-07-08T00:18:12;101278.75;;;19.70;75.42
80102;BME280;69407;44.966;19.622;2023-07-08T00:20:40;101273.50;;;19.69;75.17
80102;BME280;69407;44.966;19.622;2023-07-08T00:23:09;101274.41;;;19.56;75.66
80102;BME280;69407;44.966;19.622;2023-07-08T00:25:34;101276.16;;;19.32;76.81
80102;BME280;69407;44.966;19.622;2023-07-08T00:28:00;101281.72;;;19.42;76.42
80102;BME280;69407;44.966;19.622;2023-07-08T00:30:30;101282.75;;;19.52;75.55
80102;BME280;69407;44.966;19.622;2023-07-08T00:32:57;101282.75;;;19.52;75.45
80102;BME280;69407;44.966;19.622;2023-07-08T00:35:38;101275.25;;;19.44;75.56
80102;BME280;69407;44.966;19.622;2023-07-08T00:38:21;101278.19;;;19.41;75.73
80102;BME280;69407;44.966;19.622;2023-07-08T00:40:59;101274.81;;;19.50;75.40
80102;BME280;69407;44.966;19.622;2023-07-08T00:43:44;101276.59;;;19.39;75.67
80102;BME280;69407;44.966;19.622;2023-07-08T00:48:47;101281.41;;;19.33;75.82
80102;BME280;69407;44.966;19.622;2023-07-08T00:51:14;101286.47;;;19.13;76.75
80102;BME280;69407;44.966;19.622;2023-07-08T00:53:39;101275.41;;;19.30;76.04
80102;BME280;69407;44.966;19.622;2023-07-08T00:56:19;101277.88;;;19.20;76.23
80102;BME280;69407;44.966;19.622;2023-07-08T00:58:53;101281.56;;;19.07;77.00
80102;BME280;69407;44.966;19.622;2023-07-08T01:01:21;101268.69;;;18.86;77.50
80102;BME280;69407;44.966;19.622;2023-07-08T01:04:01;101271.69;;;18.94;76.80
80102;BME280;69407;44.966;19.622;2023-07-08T01:06:30;101277.03;;;19.20;76.04
80102;BME280;69407;44.966;19.622;2023-07-08T01:09:02;101271.03;;;19.16;75.82
80102;BME280;69407;44.966;19.622;2023-07-08T01:11:28;101270.81;;;19.19;75.14
80102;BME280;69407;44.966;19.622;2023-07-08T01:13:55;101270.28;;;19.01;75.82
80102;BME280;69407;44.966;19.622;2023-07-08T01:16:22;101263.19;;;19.13;75.49
80102;BME280;69407;44.966;19.622;2023-07-08T01:18:48;101270.94;;;19.05;75.24
80102;BME280;69407;44.966;19.622;2023-07-08T01:21:38;101274.47;;;19.06;75.45
80102;BME280;69407;44.966;19.622;2023-07-08T01:24:07;101271.69;;;19.07;75.43
80102;BME280;69407;44.966;19.622;2023-07-08T01:26:34;101272.44;;;18.96;75.84
80102;BME280;69407;44.966;19.622;2023-07-08T01:29:01;101272.53;;;19.08;75.22
80102;BME280;69407;44.966;19.622;2023-07-08T01:31:28;101274.03;;;19.12;75.04
80102;BME280;69407;44.966;19.622;2023-07-08T01:33:54;101276.09;;;19.08;74.78
80102;BME280;69407;44.966;19.622;2023-07-08T01:36:20;101272.03;;;18.90;75.25
80102;BME280;69407;44.966;19.622;2023-07-08T01:38:46;101278.31;;;18.89;74.99
80102;BME280;69407;44.966;19.622;2023-07-08T01:41:14;101279.19;;;18.77;76.17
80102;BME280;69407;44.966;19.622;2023-07-08T01:43:39;101281.66;;;18.67;76.66
80102;BME280;69407;44.966;19.622;2023-07-08T01:46:12;101281.97;;;18.75;76.06
80102;BME280;69407;44.966;19.622;2023-07-08T01:48:41;101277.91;;;18.82;75.77
80102;BME280;69407;44.966;19.622;2023-07-08T01:51:09;101272.94;;;18.63;76.50
80102;BME280;69407;44.966;19.622;2023-07-08T01:53:37;101273.81;;;18.64;76.24
80102;BME280;69407;44.966;19.622;2023-07-08T01:56:04;101270.84;;;18.81;75.66
80102;BME280;69407;44.966;19.622;2023-07-08T01:58:30;101267.59;;;18.63;76.49
80102;BME280;69407;44.966;19.622;2023-07-08T02:00:56;101259.47;;;18.78;75.93
80102;BME280;69407;44.966;19.622;2023-07-08T02:03:22;101259.81;;;18.86;75.37
80102;BME280;69407;44.966;19.622;2023-07-08T02:05:48;101267.22;;;18.69;76.79
80102;BME280;69407;44.966;19.622;2023-07-08T02:08:13;101261.75;;;18.71;76.67
80102;BME280;69407;44.966;19.622;2023-07-08T02:10:40;101272.53;;;18.57;77.09
80102;BME280;69407;44.966;19.622;2023-07-08T02:13:06;101272.09;;;18.63;77.10
80102;BME280;69407;44.966;19.622;2023-07-08T02:15:32;101265.34;;;18.57;77.51
80102;BME280;69407;44.966;19.622;2023-07-08T02:17:58;101273.16;;;18.60;77.14
80102;BME280;69407;44.966;19.622;2023-07-08T02:20:24;101275.72;;;18.62;77.58
80102;BME280;69407;44.966;19.622;2023-07-08T02:22:49;101273.41;;;18.70;77.11
80102;BME280;69407;44.966;19.622;2023-07-08T02:25:15;101266.56;;;18.66;77.97
80102;BME280;69407;44.966;19.622;2023-07-08T02:27:41;101271.00;;;18.53;78.50
80102;BME280;69407;44.966;19.622;2023-07-08T02:30:08;101284.91;;;18.45;78.56
80102;BME280;69407;44.966;19.622;2023-07-08T02:32:34;101273.34;;;18.44;78.98
80102;BME280;69407;44.966;19.622;2023-07-08T02:35:01;101277.88;;;18.57;78.33
80102;BME280;69407;44.966;19.622;2023-07-08T02:37:29;101287.06;;;18.53;78.42
80102;BME280;69407;44.966;19.622;2023-07-08T02:39:55;101283.81;;;18.35;79.61
80102;BME280;69407;44.966;19.622;2023-07-08T02:42:21;101291.22;;;18.31;79.63
80102;BME280;69407;44.966;19.622;2023-07-08T02:44:46;101290.47;;;18.29;81.10
80102;BME280;69407;44.966;19.622;2023-07-08T02:47:12;101288.44;;;18.33;80.39
80102;BME280;69407;44.966;19.622;2023-07-08T02:49:37;101284.47;;;18.38;80.89
80102;BME280;69407;44.966;19.622;2023-07-08T02:52:03;101293.88;;;18.31;80.95
80102;BME280;69407;44.966;19.622;2023-07-08T02:54:29;101291.84;;;18.35;81.11
80102;BME280;69407;44.966;19.622;2023-07-08T02:56:54;101294.19;;;18.27;81.27
80102;BME280;69407;44.966;19.622;2023-07-08T02:59:20;101292.94;;;18.32;81.15
80102;BME280;69407;44.966;19.622;2023-07-08T03:01:45;101293.47;;;18.37;80.33
80102;BME280;69407;44.966;19.622;2023-07-08T03:04:12;101297.97;;;18.50;79.42
80102;BME280;69407;44.966;19.622;2023-07-08T03:06:44;101295.09;;;18.53;78.90
80102;BME280;69407;44.966;19.622;2023-07-08T03:09:11;101304.91;;;18.39;79.68
80102;BME280;69407;44.966;19.622;2023-07-08T03:11:37;101301.19;;;18.15;80.83
80102;BME280;69407;44.966;19.622;2023-07-08T03:14:03;101296.13;;;18.37;79.75
80102;BME280;69407;44.966;19.622;2023-07-08T03:16:29;101305.13;;;18.36;79.64
80102;BME280;69407;44.966;19.622;2023-07-08T03:18:54;101310.63;;;18.48;79.40
80102;BME280;69407;44.966;19.622;2023-07-08T03:21:20;101311.63;;;18.20;81.02
80102;BME280;69407;44.966;19.622;2023-07-08T03:23:48;101314.25;;;18.47;79.88
80102;BME280;69407;44.966;19.622;2023-07-08T03:26:20;101319.25;;;18.38;80.48
80102;BME280;69407;44.966;19.622;2023-07-08T03:28:47;101319.06;;;18.41;80.18
80102;BME280;69407;44.966;19.622;2023-07-08T03:31:13;101326.03;;;18.44;80.20
80102;BME280;69407;44.966;19.622;2023-07-08T03:33:38;101324.13;;;18.59;79.30
80102;BME280;69407;44.966;19.622;2023-07-08T03:36:09;101324.81;;;18.35;80.55
80102;BME280;69407;44.966;19.622;2023-07-08T03:38:37;101325.19;;;18.43;80.53
80102;BME280;69407;44.966;19.622;2023-07-08T03:41:03;101329.44;;;18.33;81.10
80102;BME280;69407;44.966;19.622;2023-07-08T03:43:29;101336.94;;;18.14;82.53
80102;BME280;69407;44.966;19.622;2023-07-08T03:45:55;101340.69;;;18.11;82.11
80102;BME280;69407;44.966;19.622;2023-07-08T03:48:20;101344.72;;;18.04;82.65
80102;BME280;69407;44.966;19.622;2023-07-08T03:50:46;101344.31;;;18.37;81.28
80102;BME280;69407;44.966;19.622;2023-07-08T03:53:11;101354.47;;;18.05;82.64
80102;BME280;69407;44.966;19.622;2023-07-08T03:55:37;101367.44;;;18.11;81.97
80102;BME280;69407;44.966;19.622;2023-07-08T03:58:02;101362.72;;;18.15;82.02
80102;BME280;69407;44.966;19.622;2023-07-08T04:00:28;101361.06;;;18.27;81.04
80102;BME280;69407;44.966;19.622;2023-07-08T04:02:53;101364.84;;;18.37;80.80
80102;BME280;69407;44.966;19.622;2023-07-08T04:05:22;101372.56;;;18.14;81.00
80102;BME280;69407;44.966;19.622;2023-07-08T04:07:48;101371.81;;;18.39;80.16
80102;BME280;69407;44.966;19.622;2023-07-08T04:10:14;101383.88;;;18.59;79.27
80102;BME280;69407;44.966;19.622;2023-07-08T04:12:41;101384.53;;;18.63;79.05
80102;BME280;69407;44.966;19.622;2023-07-08T04:15:10;101388.75;;;18.67;79.46
80102;BME280;69407;44.966;19.622;2023-07-08T04:17:43;101390.50;;;18.81;78.14
80102;BME280;69407;44.966;19.622;2023-07-08T04:20:11;101387.91;;;18.66;78.89
80102;BME280;69407;44.966;19.622;2023-07-08T04:22:39;101394.75;;;18.70;79.01
80102;BME280;69407;44.966;19.622;2023-07-08T04:25:05;101401.09;;;18.82;78.34
80102;BME280;69407;44.966;19.622;2023-07-08T04:27:31;101395.13;;;18.91;78.39
80102;BME280;69407;44.966;19.622;2023-07-08T04:29:57;101400.75;;;18.74;79.05
80102;BME280;69407;44.966;19.622;2023-07-08T04:32:23;101412.06;;;18.65;80.07
80102;BME280;69407;44.966;19.622;2023-07-08T04:34:52;101410.28;;;18.51;81.87
80102;BME280;69407;44.966;19.622;2023-07-08T04:37:17;101406.75;;;18.51;81.80
80102;BME280;69407;44.966;19.622;2023-07-08T04:39:44;101393.69;;;18.19;82.82
80102;BME280;69407;44.966;19.622;2023-07-08T04:42:10;101393.06;;;18.82;80.07
80102;BME280;69407;44.966;19.622;2023-07-08T04:44:38;101398.06;;;18.74;80.82
80102;BME280;69407;44.966;19.622;2023-07-08T04:47:04;101395.91;;;18.39;81.76
80102;BME280;69407;44.966;19.622;2023-07-08T04:49:29;101393.41;;;18.90;79.96
80102;BME280;69407;44.966;19.622;2023-07-08T04:51:59;101404.00;;;18.79;79.35
80102;BME280;69407;44.966;19.622;2023-07-08T04:54:25;101412.06;;;19.05;79.02
80102;BME280;69407;44.966;19.622;2023-07-08T04:56:50;101407.34;;;18.95;80.32
80102;BME280;69407;44.966;19.622;2023-07-08T04:59:19;101412.91;;;18.92;80.19
80102;BME280;69407;44.966;19.622;2023-07-08T05:01:46;101414.75;;;19.05;79.33
80102;BME280;69407;44.966;19.622;2023-07-08T05:04:14;101407.34;;;18.95;79.60
80102;BME280;69407;44.966;19.622;2023-07-08T05:06:39;101413.06;;;19.16;78.99
80102;BME280;69407;44.966;19.622;2023-07-08T05:09:05;101417.56;;;19.16;79.55
80102;BME280;69407;44.966;19.622;2023-07-08T05:11:31;101415.19;;;19.24;79.18
80102;BME280;69407;44.966;19.622;2023-07-08T05:13:57;101414.22;;;19.25;79.15
80102;BME280;69407;44.966;19.622;2023-07-08T05:16:22;101409.81;;;19.37;79.01
80102;BME280;69407;44.966;19.622;2023-07-08T05:18:48;101407.69;;;19.42;78.62
80102;BME280;69407;44.966;19.622;2023-07-08T05:21:14;101408.44;;;19.69;77.04
80102;BME280;69407;44.966;19.622;2023-07-08T05:23:40;101417.78;;;19.76;77.06
80102;BME280;69407;44.966;19.622;2023-07-08T05:26:06;101422.81;;;19.81;76.18
80102;BME280;69407;44.966;19.622;2023-07-08T05:28:35;101406.56;;;19.95;75.56
80102;BME280;69407;44.966;19.622;2023-07-08T05:31:01;101412.25;;;20.03;74.56
80102;BME280;69407;44.966;19.622;2023-07-08T05:33:28;101418.84;;;20.10;73.75
80102;BME280;69407;44.966;19.622;2023-07-08T05:35:55;101413.72;;;20.07;72.70
80102;BME280;69407;44.966;19.622;2023-07-08T05:38:21;101422.84;;;20.05;72.18
80102;BME280;69407;44.966;19.622;2023-07-08T05:40:51;101411.53;;;20.25;72.70
80102;BME280;69407;44.966;19.622;2023-07-08T05:43:19;101418.69;;;20.37;72.07
80102;BME280;69407;44.966;19.622;2023-07-08T05:45:44;101416.91;;;20.25;72.82
80102;BME280;69407;44.966;19.622;2023-07-08T05:48:10;101419.47;;;20.27;72.94
80102;BME280;69407;44.966;19.622;2023-07-08T05:50:36;101417.53;;;20.29;73.03
80102;BME280;69407;44.966;19.622;2023-07-08T05:53:01;101414.16;;;20.38;72.92
80102;BME280;69407;44.966;19.622;2023-07-08T05:55:27;101414.84;;;20.76;71.87
80102;BME280;69407;44.966;19.622;2023-07-08T05:57:52;101412.56;;;20.59;71.48
80102;BME280;69407;44.966;19.622;2023-07-08T06:00:18;101416.31;;;20.81;70.29
80102;BME280;69407;44.966;19.622;2023-07-08T06:02:43;101417.72;;;20.62;69.58
80102;BME280;69407;44.966;19.622;2023-07-08T06:05:09;101414.56;;;20.68;69.64
80102;BME280;69407;44.966;19.622;2023-07-08T06:07:35;101420.72;;;20.82;71.02
80102;BME280;69407;44.966;19.622;2023-07-08T06:10:00;101425.16;;;20.94;70.60
80102;BME280;69407;44.966;19.622;2023-07-08T06:12:26;101424.31;;;20.93;69.23
80102;BME280;69407;44.966;19.622;2023-07-08T06:14:52;101422.03;;;21.00;69.06
80102;BME280;69407;44.966;19.622;2023-07-08T06:17:18;101421.06;;;21.12;68.90
80102;BME280;69407;44.966;19.622;2023-07-08T06:19:43;101428.84;;;21.39;68.63
80102;BME280;69407;44.966;19.622;2023-07-08T06:22:09;101427.13;;;21.27;68.56
80102;BME280;69407;44.966;19.622;2023-07-08T06:24:35;101423.72;;;21.47;67.78
80102;BME280;69407;44.966;19.622;2023-07-08T06:27:00;101427.63;;;21.54;68.02
80102;BME280;69407;44.966;19.622;2023-07-08T06:29:26;101425.59;;;21.58;67.83
80102;BME280;69407;44.966;19.622;2023-07-08T06:31:52;101429.72;;;21.73;66.64
80102;BME280;69407;44.966;19.622;2023-07-08T06:34:18;101424.09;;;21.76;66.24
80102;BME280;69407;44.966;19.622;2023-07-08T06:36:44;101426.66;;;21.78;65.79
80102;BME280;69407;44.966;19.622;2023-07-08T06:39:10;101428.25;;;21.80;66.35
80102;BME280;69407;44.966;19.622;2023-07-08T06:41:37;101413.22;;;22.11;65.70
80102;BME280;69407;44.966;19.622;2023-07-08T06:44:04;101429.63;;;22.08;65.20
80102;BME280;69407;44.966;19.622;2023-07-08T06:46:29;101426.78;;;22.10;63.95
80102;BME280;69407;44.966;19.622;2023-07-08T06:48:55;101421.13;;;22.24;62.97
80102;BME280;69407;44.966;19.622;2023-07-08T06:51:21;101423.09;;;22.33;64.07
80102;BME280;69407;44.966;19.622;2023-07-08T06:53:46;101418.78;;;22.42;60.75
80102;BME280;69407;44.966;19.622;2023-07-08T06:56:11;101415.44;;;22.49;62.04
80102;BME280;69407;44.966;19.622;2023-07-08T06:58:37;101414.34;;;22.73;61.49
80102;BME280;69407;44.966;19.622;2023-07-08T07:01:03;101409.09;;;22.71;58.74
80102;BME280;69407;44.966;19.622;2023-07-08T07:03:28;101404.13;;;22.67;59.47
80102;BME280;69407;44.966;19.622;2023-07-08T07:05:54;101398.03;;;22.86;58.62
80102;BME280;69407;44.966;19.622;2023-07-08T07:08:19;101393.38;;;22.88;58.95
80102;BME280;69407;44.966;19.622;2023-07-08T07:10:45;101398.50;;;23.12;57.86
80102;BME280;69407;44.966;19.622;2023-07-08T07:13:10;101399.41;;;23.22;56.44
80102;BME280;69407;44.966;19.622;2023-07-08T07:15:36;101407.13;;;23.05;54.14
80102;BME280;69407;44.966;19.622;2023-07-08T07:18:01;101396.56;;;23.23;54.71
80102;BME280;69407;44.966;19.622;2023-07-08T07:20:27;101400.44;;;23.51;55.91
80102;BME280;69407;44.966;19.622;2023-07-08T07:22:53;101401.53;;;23.49;53.38
80102;BME280;69407;44.966;19.622;2023-07-08T07:25:18;101410.47;;;23.49;55.61
80102;BME280;69407;44.966;19.622;2023-07-08T07:27:44;101403.56;;;23.56;53.86
80102;BME280;69407;44.966;19.622;2023-07-08T07:30:10;101393.50;;;23.89;52.59
80102;BME280;69407;44.966;19.622;2023-07-08T07:32:40;101405.34;;;24.07;53.21
80102;BME280;69407;44.966;19.622;2023-07-08T07:35:07;101401.22;;;24.03;53.94
80102;BME280;69407;44.966;19.622;2023-07-08T07:37:33;101403.09;;;24.12;53.74
80102;BME280;69407;44.966;19.622;2023-07-08T07:39:58;101399.25;;;24.15;52.02
80102;BME280;69407;44.966;19.622;2023-07-08T07:42:27;101399.91;;;24.38;52.04
80102;BME280;69407;44.966;19.622;2023-07-08T07:44:52;101401.63;;;24.48;51.38
80102;BME280;69407;44.966;19.622;2023-07-08T07:47:18;101404.88;;;24.52;51.37
80102;BME280;69407;44.966;19.622;2023-07-08T07:49:44;101403.47;;;24.87;51.48
80102;BME280;69407;44.966;19.622;2023-07-08T07:52:09;101396.03;;;24.98;51.40
80102;BME280;69407;44.966;19.622;2023-07-08T07:54:37;101394.69;;;25.41;49.94
80102;BME280;69407;44.966;19.622;2023-07-08T07:57:03;101403.22;;;25.46;48.70
80102;BME280;69407;44.966;19.622;2023-07-08T07:59:28;101403.25;;;25.83;48.53
80102;BME280;69407;44.966;19.622;2023-07-08T08:01:54;101390.63;;;26.19;46.39
80102;BME280;69407;44.966;19.622;2023-07-08T08:04:19;101392.63;;;26.88;45.96
80102;BME280;69407;44.966;19.622;2023-07-08T08:06:45;101387.41;;;27.05;45.13
80102;BME280;69407;44.966;19.622;2023-07-08T08:09:10;101389.75;;;28.36;42.86
80102;BME280;69407;44.966;19.622;2023-07-08T08:11:36;101383.09;;;28.30;41.17
80102;BME280;69407;44.966;19.622;2023-07-08T08:14:01;101384.00;;;30.69;36.88
80102;BME280;69407;44.966;19.622;2023-07-08T08:16:29;101373.91;;;35.27;28.18
80102;BME280;69407;44.966;19.622;2023-07-08T08:18:54;101375.47;;;38.65;23.12
80102;BME280;69407;44.966;19.622;2023-07-08T08:21:38;101374.84;;;36.80;23.01
80102;BME280;69407;44.966;19.622;2023-07-08T08:24:04;101368.38;;;36.68;23.17
80102;BME280;69407;44.966;19.622;2023-07-08T08:26:30;101371.19;;;37.73;22.01
80102;BME280;69407;44.966;19.622;2023-07-08T08:28:56;101365.44;;;38.53;22.30
80102;BME280;69407;44.966;19.622;2023-07-08T08:31:21;101356.41;;;36.81;22.65
80102;BME280;69407;44.966;19.622;2023-07-08T08:33:46;101365.13;;;32.51;29.26
80102;BME280;69407;44.966;19.622;2023-07-08T08:36:12;101358.69;;;32.23;29.22
80102;BME280;69407;44.966;19.622;2023-07-08T08:38:38;101360.97;;;30.41;33.00
80102;BME280;69407;44.966;19.622;2023-07-08T08:41:14;101356.25;;;31.33;31.28
80102;BME280;69407;44.966;19.622;2023-07-08T08:43:41;101357.38;;;30.71;32.35
80102;BME280;69407;44.966;19.622;2023-07-08T08:51:39;101358.03;;;29.41;34.03
80102;BME280;69407;44.966;19.622;2023-07-08T08:54:06;101366.22;;;29.88;33.35
80102;BME280;69407;44.966;19.622;2023-07-08T08:56:52;101368.50;;;29.05;33.43
80102;BME280;69407;44.966;19.622;2023-07-08T08:59:42;101365.47;;;29.00;36.50
80102;BME280;69407;44.966;19.622;2023-07-08T09:04:52;101364.63;;;29.71;35.09
80102;BME280;69407;44.966;19.622;2023-07-08T09:07:20;101358.88;;;29.58;32.67
80102;BME280;69407;44.966;19.622;2023-07-08T09:12:42;101365.66;;;29.62;33.59
80102;BME280;69407;44.966;19.622;2023-07-08T09:15:12;101366.03;;;29.59;33.15
80102;BME280;69407;44.966;19.622;2023-07-08T09:17:38;101360.69;;;29.10;33.82
80102;BME280;69407;44.966;19.622;2023-07-08T09:20:23;101355.06;;;28.79;34.75
80102;BME280;69407;44.966;19.622;2023-07-08T09:25:43;101359.59;;;29.35;34.98
80102;BME280;69407;44.966;19.622;2023-07-08T09:28:07;101352.84;;;29.07;36.77
80102;BME280;69407;44.966;19.622;2023-07-08T09:30:33;101349.97;;;28.68;38.71
80102;BME280;69407;44.966;19.622;2023-07-08T09:33:03;101350.06;;;29.39;33.24
80102;BME280;69407;44.966;19.622;2023-07-08T09:35:38;101354.97;;;29.52;35.34
80102;BME280;69407;44.966;19.622;2023-07-08T09:38:08;101352.28;;;29.36;34.75
80102;BME280;69407;44.966;19.622;2023-07-08T09:40:34;101351.69;;;28.85;37.22
80102;BME280;69407;44.966;19.622;2023-07-08T09:45:44;101345.03;;;29.04;35.87
80102;BME280;69407;44.966;19.622;2023-07-08T09:48:17;101344.91;;;28.48;37.26
80102;BME280;69407;44.966;19.622;2023-07-08T09:50:43;101344.00;;;28.31;35.76
80102;BME280;69407;44.966;19.622;2023-07-08T09:53:28;101355.97;;;28.87;35.17
80102;BME280;69407;44.966;19.622;2023-07-08T09:55:56;101351.19;;;28.49;32.53
80102;BME280;69407;44.966;19.622;2023-07-08T09:58:41;101344.84;;;29.13;34.21
80102;BME280;69407;44.966;19.622;2023-07-08T10:01:12;101340.97;;;29.08;36.38
80102;BME280;69407;44.966;19.622;2023-07-08T10:03:38;101346.50;;;29.31;35.07
80102;BME280;69407;44.966;19.622;2023-07-08T10:06:17;101349.50;;;29.60;31.36
80102;BME280;69407;44.966;19.622;2023-07-08T10:08:46;101344.50;;;29.25;31.97
80102;BME280;69407;44.966;19.622;2023-07-08T10:11:28;101340.16;;;29.55;31.28
80102;BME280;69407;44.966;19.622;2023-07-08T10:14:10;101341.22;;;29.29;33.12
80102;BME280;69407;44.966;19.622;2023-07-08T10:16:36;101333.22;;;29.83;31.17
80102;BME280;69407;44.966;19.622;2023-07-08T10:19:11;101327.88;;;29.90;30.98
80102;BME280;69407;44.966;19.622;2023-07-08T10:21:44;101336.19;;;28.69;36.81
80102;BME280;69407;44.966;19.622;2023-07-08T10:26:57;101334.06;;;29.84;31.46
80102;BME280;69407;44.966;19.622;2023-07-08T10:29:38;101344.25;;;29.59;31.61
80102;BME280;69407;44.966;19.622;2023-07-08T10:45:19;101332.88;;;29.39;34.59
80102;BME280;69407;44.966;19.622;2023-07-08T10:48:26;101323.38;;;29.35;32.51
80102;BME280;69407;44.966;19.622;2023-07-08T11:07:45;101277.22;;;29.81;34.60
80102;BME280;69407;44.966;19.622;2023-07-08T11:10:22;101287.91;;;29.43;34.02
80102;BME280;69407;44.966;19.622;2023-07-08T11:13:05;101289.59;;;29.05;34.99
80102;BME280;69407;44.966;19.622;2023-07-08T11:21:47;101273.81;;;29.39;32.83
80102;BME280;69407;44.966;19.622;2023-07-08T11:27:11;101277.19;;;30.12;34.58
80102;BME280;69407;44.966;19.622;2023-07-08T11:32:43;101272.00;;;29.94;32.50
80102;BME280;69407;44.966;19.622;2023-07-08T11:35:35;101272.16;;;30.23;33.58
80102;BME280;69407;44.966;19.622;2023-07-08T11:38:02;101270.22;;;30.32;32.29
80102;BME280;69407;44.966;19.622;2023-07-08T11:40:28;101269.75;;;30.06;33.56
80102;BME280;69407;44.966;19.622;2023-07-08T11:43:01;101270.28;;;29.70;33.13
80102;BME280;69407;44.966;19.622;2023-07-08T11:45:34;101269.34;;;29.86;33.28
80102;BME280;69407;44.966;19.622;2023-07-08T11:48:41;101266.59;;;30.17;32.60
80102;BME280;69407;44.966;19.622;2023-07-08T11:51:08;101269.38;;;30.31;33.20
80102;BME280;69407;44.966;19.622;2023-07-08T11:53:37;101270.44;;;30.45;33.01
80102;BME280;69407;44.966;19.622;2023-07-08T11:59:08;101265.69;;;30.39;31.58
80102;BME280;69407;44.966;19.622;2023-07-08T12:07:01;101253.41;;;29.97;32.85
80102;BME280;69407;44.966;19.622;2023-07-08T12:09:29;101250.81;;;30.27;31.75
80102;BME280;69407;44.966;19.622;2023-07-08T12:12:03;101246.53;;;30.32;31.44
80102;BME280;69407;44.966;19.622;2023-07-08T12:14:31;101242.13;;;30.46;29.45
80102;BME280;69407;44.966;19.622;2023-07-08T12:16:57;101232.50;;;29.28;33.19
80102;BME280;69407;44.966;19.622;2023-07-08T12:19:24;101236.53;;;29.09;32.98
80102;BME280;69407;44.966;19.622;2023-07-08T12:21:52;101228.69;;;29.76;34.29
80102;BME280;69407;44.966;19.622;2023-07-08T12:24:18;101217.25;;;30.03;32.51
80102;BME280;69407;44.966;19.622;2023-07-08T12:26:44;101216.53;;;30.32;32.67
80102;BME280;69407;44.966;19.622;2023-07-08T12:29:13;101210.28;;;30.24;32.30
80102;BME280;69407;44.966;19.622;2023-07-08T12:31:40;101221.25;;;30.16;31.65
80102;BME280;69407;44.966;19.622;2023-07-08T12:34:12;101224.47;;;29.96;32.20
80102;BME280;69407;44.966;19.622;2023-07-08T12:36:39;101221.63;;;30.13;33.08
80102;BME280;69407;44.966;19.622;2023-07-08T12:39:05;101222.78;;;30.18;32.59
80102;BME280;69407;44.966;19.622;2023-07-08T12:41:33;101216.91;;;30.29;30.43
80102;BME280;69407;44.966;19.622;2023-07-08T12:44:00;101224.50;;;30.34;30.14
80102;BME280;69407;44.966;19.622;2023-07-08T12:46:28;101215.50;;;30.48;30.98
80102;BME280;69407;44.966;19.622;2023-07-08T12:48:54;101207.00;;;30.66;29.50
80102;BME280;69407;44.966;19.622;2023-07-08T12:51:23;101206.16;;;30.66;30.23
80102;BME280;69407;44.966;19.622;2023-07-08T12:53:51;101214.72;;;30.92;31.10
80102;BME280;69407;44.966;19.622;2023-07-08T12:56:18;101208.31;;;31.00;31.07
80102;BME280;69407;44.966;19.622;2023-07-08T12:58:50;101207.53;;;30.61;32.54
80102;BME280;69407;44.966;19.622;2023-07-08T13:01:20;101218.22;;;30.48;32.47
80102;BME280;69407;44.966;19.622;2023-07-08T13:03:52;101226.38;;;30.19;32.24
80102;BME280;69407;44.966;19.622;2023-07-08T13:06:21;101225.31;;;29.97;31.75
80102;BME280;69407;44.966;19.622;2023-07-08T13:08:49;101224.31;;;30.88;29.03
80102;BME280;69407;44.966;19.622;2023-07-08T13:11:18;101226.38;;;30.86;30.68
80102;BME280;69407;44.966;19.622;2023-07-08T13:13:52;101217.34;;;30.71;30.74
80102;BME280;69407;44.966;19.622;2023-07-08T13:16:19;101221.03;;;30.92;31.55
80102;BME280;69407;44.966;19.622;2023-07-08T13:18:45;101231.66;;;30.73;29.62
80102;BME280;69407;44.966;19.622;2023-07-08T13:21:13;101233.00;;;29.93;30.81
80102;BME280;69407;44.966;19.622;2023-07-08T13:23:39;101233.88;;;29.63;31.93
80102;BME280;69407;44.966;19.622;2023-07-08T13:26:21;101232.75;;;29.80;31.63
80102;BME280;69407;44.966;19.622;2023-07-08T13:28:48;101225.69;;;29.94;28.92
80102;BME280;69407;44.966;19.622;2023-07-08T13:33:51;101222.31;;;29.61;30.75
80102;BME280;69407;44.966;19.622;2023-07-08T13:36:20;101214.41;;;29.74;32.43
80102;BME280;69407;44.966;19.622;2023-07-08T13:38:46;101216.75;;;29.77;33.21
80102;BME280;69407;44.966;19.622;2023-07-08T13:41:18;101207.63;;;30.16;31.89
80102;BME280;69407;44.966;19.622;2023-07-08T13:43:44;101196.66;;;30.24;29.91
80102;BME280;69407;44.966;19.622;2023-07-08T13:46:30;101187.59;;;29.32;33.37
80102;BME280;69407;44.966;19.622;2023-07-08T13:49:00;101200.19;;;29.87;32.88
80102;BME280;69407;44.966;19.622;2023-07-08T13:51:30;101202.22;;;30.30;32.34
80102;BME280;69407;44.966;19.622;2023-07-08T13:54:09;101207.31;;;30.48;33.04
80102;BME280;69407;44.966;19.622;2023-07-08T13:56:40;101204.59;;;29.88;31.52
80102;BME280;69407;44.966;19.622;2023-07-08T13:59:09;101203.66;;;30.41;31.18
80102;BME280;69407;44.966;19.622;2023-07-08T14:01:37;101211.28;;;30.08;31.83